Weather at UNFICYP OP18 Heliport

Public forecast

Using degrees Celsius for public forecast. Weather courtesy of forecast.io.

Closest aviation weather report (METAR) to UNFICYP OP18 Heliport

Closest report is Paphos International Airport, 27.8 nm (51.5 km) SW.

2024/07/17 13:30 (retrieved 22 minutes ago)

LCPH 171330Z 30012KT 250V320 9999 FEW020 31/26 Q1006 NOSIG

Closest aviation forecast (TAF) to UNFICYP OP18 Heliport

Closest forecast is Paphos International Airport, 27.8 nm (51.5 km) SW.

2024/07/17 12:36 (retrieved 1 hour ago)

TAF LCPH 171130Z 1712/1812 29012KT 9999 FEW015 BECMG 1716/1720 35007KT PROB30 TEMPO 1722/1806 BKN007 BECMG 1807/1811 29012KT